Time;durP1;ratioP1;P1;durP2;ratioP2;P2;SDS_P1;SDS_P2;PMS_P1;PMS_P2;Temp;Humidity;BMP_temperature;BMP_pressure;BME280_temperature;BME280_humidity;BME280_pressure;Samples;Min_cycle;Max_cycle;Signal;HPM_P1;HPM_P2
2024/01/18 00:00:15;;;;;;;3.30;3.10;;;;;;;;;;5090224;28;20024;-84
2024/01/18 00:02:41;;;;;;;3.50;3.20;;;;;;;;;;5076326;28;20047;-84
2024/01/18 00:05:08;;;;;;;3.33;3.10;;;;;;;;;;5069700;28;20535;-84
2024/01/18 00:07:34;;;;;;;3.35;3.05;;;;;;;;;;5070049;28;20021;-83
2024/01/18 00:10:00;;;;;;;2.60;2.40;;;;;;;;;;5070141;28;20032;-82
2024/01/18 00:12:26;;;;;;;2.58;2.38;;;;;;;;;;5068630;28;20071;-83
2024/01/18 00:14:52;;;;;;;2.75;2.55;;;;;;;;;;5069863;28;20500;-83
2024/01/18 00:17:18;;;;;;;2.78;2.58;;;;;;;;;;5069908;28;20024;-83
2024/01/18 00:19:44;;;;;;;2.92;2.72;;;;;;;;;;5069712;28;20089;-84
2024/01/18 00:22:10;;;;;;;2.53;2.33;;;;;;;;;;5070531;28;20099;-83
2024/01/18 00:24:36;;;;;;;2.95;2.75;;;;;;;;;;5069736;28;20025;-83
2024/01/18 00:27:02;;;;;;;2.70;2.50;;;;;;;;;;5069657;28;20171;-83
2024/01/18 00:29:28;;;;;;;2.88;2.45;;;;;;;;;;5069613;28;20481;-83
2024/01/18 00:31:54;;;;;;;2.92;2.60;;;;;;;;;;5069591;28;20070;-83
2024/01/18 00:34:20;;;;;;;2.63;2.42;;;;;;;;;;5069179;28;20119;-83
2024/01/18 00:36:46;;;;;;;2.45;2.25;;;;;;;;;;5069538;28;20028;-82
2024/01/18 00:39:16;;;;;;;2.50;2.30;;;;;;;;;;5069618;28;20032;-83
2024/01/18 00:41:43;;;;;;;2.50;2.30;;;;;;;;;;5069885;28;20023;-83
2024/01/18 00:44:09;;;;;;;1.95;1.85;;;;;;;;;;5070254;28;20032;-83
2024/01/18 00:46:35;;;;;;;2.60;2.40;;;;;;;;;;5069126;28;20027;-84
2024/01/18 00:49:01;;;;;;;2.45;2.25;;;;;;;;;;5069123;28;20116;-84
2024/01/18 00:51:27;;;;;;;2.33;2.13;;;;;;;;;;5069288;28;20021;-84
2024/01/18 00:53:53;;;;;;;2.22;2.10;;;;;;;;;;5069140;28;20651;-83
2024/01/18 00:56:19;;;;;;;2.15;2.05;;;;;;;;;;5069073;28;20107;-83
2024/01/18 00:58:45;;;;;;;3.00;2.40;;;;;;;;;;5069350;28;20113;-84
2024/01/18 01:01:11;;;;;;;2.60;2.40;;;;;;;;;;5070360;28;20082;-83
2024/01/18 01:03:37;;;;;;;2.10;2.00;;;;;;;;;;5088784;28;20078;-84
2024/01/18 01:06:04;;;;;;;2.28;2.08;;;;;;;;;;5088845;28;20055;-83
2024/01/18 01:08:30;;;;;;;2.50;2.30;;;;;;;;;;5088553;28;20028;-83
2024/01/18 01:10:56;;;;;;;2.70;2.50;;;;;;;;;;5089018;28;20027;-83
2024/01/18 01:13:22;;;;;;;2.50;2.30;;;;;;;;;;5089028;28;20024;-83
2024/01/18 01:15:48;;;;;;;2.60;2.40;;;;;;;;;;5089042;28;20103;-83
2024/01/18 01:18:14;;;;;;;2.33;2.13;;;;;;;;;;5089754;28;20030;-83
2024/01/18 01:20:40;;;;;;;2.40;2.20;;;;;;;;;;5089911;28;20396;-83
2024/01/18 01:23:06;;;;;;;2.60;2.40;;;;;;;;;;5089142;28;20024;-84
2024/01/18 01:25:32;;;;;;;2.35;2.15;;;;;;;;;;5089241;28;20016;-83
2024/01/18 01:27:58;;;;;;;2.20;2.10;;;;;;;;;;5088759;28;20442;-83
2024/01/18 01:30:24;;;;;;;2.20;2.10;;;;;;;;;;5088858;28;20030;-83
2024/01/18 01:32:50;;;;;;;2.33;2.13;;;;;;;;;;5088748;28;20025;-83
2024/01/18 01:35:16;;;;;;;2.30;2.10;;;;;;;;;;5087608;28;20071;-83
2024/01/18 01:37:42;;;;;;;2.60;2.40;;;;;;;;;;5089873;28;20051;-84
2024/01/18 01:40:08;;;;;;;2.35;2.20;;;;;;;;;;5089100;28;20035;-83
2024/01/18 01:42:34;;;;;;;2.20;2.10;;;;;;;;;;5088808;28;20016;-83
2024/01/18 01:45:00;;;;;;;2.90;2.38;;;;;;;;;;5088897;28;20046;-82
2024/01/18 01:47:26;;;;;;;2.75;2.45;;;;;;;;;;5088884;28;20468;-83
2024/01/18 01:49:52;;;;;;;2.63;2.42;;;;;;;;;;5087634;28;20031;-82
2024/01/18 01:52:18;;;;;;;2.97;2.67;;;;;;;;;;5088947;28;20501;-82
2024/01/18 01:54:45;;;;;;;3.53;2.92;;;;;;;;;;5089462;28;20068;-84
2024/01/18 01:57:11;;;;;;;2.67;2.47;;;;;;;;;;5088848;28;20024;-82
2024/01/18 01:59:37;;;;;;;3.10;2.80;;;;;;;;;;5088850;28;20024;-82
2024/01/18 02:02:03;;;;;;;3.40;3.10;;;;;;;;;;5079870;28;20489;-82
2024/01/18 02:04:30;;;;;;;3.05;2.75;;;;;;;;;;5068388;28;20027;-82
2024/01/18 02:06:57;;;;;;;4.72;2.80;;;;;;;;;;5068494;28;20082;-83
2024/01/18 02:09:24;;;;;;;4.95;3.00;;;;;;;;;;5068560;28;20099;-82
2024/01/18 02:11:50;;;;;;;3.40;3.10;;;;;;;;;;5068521;28;20119;-83
2024/01/18 02:14:16;;;;;;;3.22;2.92;;;;;;;;;;5068903;28;20107;-83
2024/01/18 02:16:42;;;;;;;3.92;3.30;;;;;;;;;;5069252;28;20028;-82
2024/01/18 02:19:08;;;;;;;3.25;2.97;;;;;;;;;;5068360;28;20033;-83
2024/01/18 02:21:35;;;;;;;3.75;3.35;;;;;;;;;;5068410;28;20024;-82
2024/01/18 02:24:19;;;;;;;3.80;3.33;;;;;;;;;;5067325;28;20426;-82
2024/01/18 02:26:45;;;;;;;3.33;3.05;;;;;;;;;;5068246;28;20032;-82
2024/01/18 02:29:11;;;;;;;3.78;3.45;;;;;;;;;;5071979;28;20101;-82
2024/01/18 02:31:37;;;;;;;4.50;3.60;;;;;;;;;;5072028;28;20040;-82
2024/01/18 02:34:08;;;;;;;4.05;3.65;;;;;;;;;;5071617;28;20559;-82
2024/01/18 02:36:34;;;;;;;4.25;3.85;;;;;;;;;;5071686;28;20035;-83
2024/01/18 02:39:00;;;;;;;3.40;3.10;;;;;;;;;;5070274;28;20024;-82
2024/01/18 02:41:26;;;;;;;4.13;3.58;;;;;;;;;;5071383;28;20024;-81
2024/01/18 02:43:52;;;;;;;4.20;3.80;;;;;;;;;;5071593;28;20027;-82
2024/01/18 02:46:18;;;;;;;4.30;3.55;;;;;;;;;;5072365;28;20028;-82
2024/01/18 02:48:44;;;;;;;4.00;3.60;;;;;;;;;;5072524;28;20477;-81
2024/01/18 02:51:10;;;;;;;5.07;3.85;;;;;;;;;;5071629;28;20029;-81
2024/01/18 02:53:36;;;;;;;3.80;3.47;;;;;;;;;;5071287;28;20024;-81
2024/01/18 02:56:02;;;;;;;4.20;3.80;;;;;;;;;;5071135;28;20021;-81
2024/01/18 02:58:28;;;;;;;5.72;4.70;;;;;;;;;;5071482;28;20031;-81
2024/01/18 03:00:54;;;;;;;5.47;4.03;;;;;;;;;;5071388;28;20032;-82
2024/01/18 03:03:20;;;;;;;4.45;4.00;;;;;;;;;;5090403;28;20065;-81
2024/01/18 03:05:46;;;;;;;4.85;4.30;;;;;;;;;;5091115;28;20024;-82
2024/01/18 03:08:12;;;;;;;4.55;4.15;;;;;;;;;;5091420;28;20099;-81
2024/01/18 03:10:38;;;;;;;4.57;4.10;;;;;;;;;;5091090;28;20031;-82
2024/01/18 03:13:04;;;;;;;5.22;4.28;;;;;;;;;;5091368;28;20020;-81
2024/01/18 03:15:30;;;;;;;4.38;3.97;;;;;;;;;;5091334;28;20032;-81
2024/01/18 03:17:56;;;;;;;5.18;4.40;;;;;;;;;;5091391;28;20024;-81
2024/01/18 03:20:23;;;;;;;5.10;4.13;;;;;;;;;;5091452;28;20040;-82
2024/01/18 03:22:50;;;;;;;5.18;4.40;;;;;;;;;;5091878;28;20031;-81
2024/01/18 03:25:16;;;;;;;5.03;4.30;;;;;;;;;;5091916;28;20028;-82
2024/01/18 03:27:42;;;;;;;5.47;4.63;;;;;;;;;;5089952;28;20024;-81
2024/01/18 03:30:08;;;;;;;5.78;4.35;;;;;;;;;;5091028;28;20027;-82
2024/01/18 03:32:35;;;;;;;7.13;4.15;;;;;;;;;;5090974;28;20016;-81
2024/01/18 03:35:00;;;;;;;5.47;4.40;;;;;;;;;;5090862;28;20115;-81
2024/01/18 03:37:26;;;;;;;5.63;4.70;;;;;;;;;;5091082;28;20052;-81
2024/01/18 03:39:52;;;;;;;5.50;4.78;;;;;;;;;;5090808;28;20028;-81
2024/01/18 03:42:18;;;;;;;7.55;4.97;;;;;;;;;;5091843;28;20024;-81
2024/01/18 03:44:44;;;;;;;6.15;4.93;;;;;;;;;;5090670;28;20048;-81
2024/01/18 03:47:10;;;;;;;5.20;4.68;;;;;;;;;;5087202;28;20074;-83
2024/01/18 03:49:36;;;;;;;5.97;4.38;;;;;;;;;;5068585;28;20024;-82
2024/01/18 03:52:02;;;;;;;6.72;5.00;;;;;;;;;;5069013;28;20035;-83
2024/01/18 03:54:28;;;;;;;6.45;5.10;;;;;;;;;;5069634;28;20519;-82
2024/01/18 03:56:54;;;;;;;5.82;4.95;;;;;;;;;;5070346;28;20021;-82
2024/01/18 03:59:23;;;;;;;6.50;5.03;;;;;;;;;;5061235;28;20029;-83
2024/01/18 04:01:49;;;;;;;6.00;5.20;;;;;;;;;;5050814;28;20021;-82
2024/01/18 04:04:15;;;;;;;5.80;5.22;;;;;;;;;;5051549;28;20550;-80
2024/01/18 04:06:41;;;;;;;5.50;5.00;;;;;;;;;;5068765;28;20021;-82
2024/01/18 04:09:08;;;;;;;6.13;5.32;;;;;;;;;;5069958;28;20495;-81
2024/01/18 04:11:34;;;;;;;7.25;5.38;;;;;;;;;;5070019;28;20126;-83
2024/01/18 04:14:00;;;;;;;6.25;5.55;;;;;;;;;;5069804;28;20029;-82
2024/01/18 04:16:26;;;;;;;5.90;4.97;;;;;;;;;;5069633;28;20030;-81
2024/01/18 04:18:52;;;;;;;5.28;4.78;;;;;;;;;;5070419;28;20035;-82
2024/01/18 04:21:18;;;;;;;6.30;5.60;;;;;;;;;;5070448;28;20029;-82
2024/01/18 04:23:45;;;;;;;7.47;5.75;;;;;;;;;;5069569;28;20021;-83
2024/01/18 04:26:11;;;;;;;6.07;4.97;;;;;;;;;;5069713;28;20108;-82
2024/01/18 04:28:37;;;;;;;9.50;6.40;;;;;;;;;;5069631;28;20040;-81
2024/01/18 04:31:03;;;;;;;8.13;5.95;;;;;;;;;;5068200;28;20492;-82
2024/01/18 04:33:29;;;;;;;9.93;6.40;;;;;;;;;;5068320;28;20100;-82
2024/01/18 04:35:56;;;;;;;9.45;6.70;;;;;;;;;;5068697;28;20131;-82
2024/01/18 04:38:23;;;;;;;9.75;6.93;;;;;;;;;;5069762;28;20416;-82
2024/01/18 04:40:50;;;;;;;8.30;6.65;;;;;;;;;;5069262;28;20032;-83
2024/01/18 04:43:16;;;;;;;9.27;6.82;;;;;;;;;;5067854;28;20515;-84
2024/01/18 04:45:42;;;;;;;9.27;6.80;;;;;;;;;;5067182;28;20040;-84
2024/01/18 04:48:09;;;;;;;8.05;6.63;;;;;;;;;;5068582;28;20415;-85
2024/01/18 04:50:35;;;;;;;9.68;7.30;;;;;;;;;;5076453;28;20560;-83
2024/01/18 04:53:01;;;;;;;12.27;8.20;;;;;;;;;;5068248;28;20056;-83
2024/01/18 04:55:27;;;;;;;13.32;8.75;;;;;;;;;;5065924;28;20090;-82
2024/01/18 04:57:53;;;;;;;10.32;7.28;;;;;;;;;;5069305;28;20397;-83
2024/01/18 05:00:19;;;;;;;11.00;8.40;;;;;;;;;;5068137;28;20525;-83
2024/01/18 05:02:45;;;;;;;10.50;7.60;;;;;;;;;;5067527;28;20979;-84
2024/01/18 05:05:12;;;;;;;10.23;7.88;;;;;;;;;;5068342;28;20487;-84
2024/01/18 05:07:40;;;;;;;13.88;8.13;;;;;;;;;;5071648;28;20024;-84
2024/01/18 05:10:08;;;;;;;10.00;6.85;;;;;;;;;;5066979;28;20411;-84
2024/01/18 05:12:35;;;;;;;12.35;8.30;;;;;;;;;;5066796;28;20028;-84
2024/01/18 05:15:01;;;;;;;10.30;7.43;;;;;;;;;;5066876;28;20047;-83
2024/01/18 05:17:35;;;;;;;9.23;6.95;;;;;;;;;;5068302;28;20025;-84
2024/01/18 05:20:07;;;;;;;10.90;7.20;;;;;;;;;;5072234;28;20460;-85
2024/01/18 05:22:34;;;;;;;8.75;6.50;;;;;;;;;;5068686;28;20028;-84
2024/01/18 05:25:00;;;;;;;9.95;7.07;;;;;;;;;;5067933;28;20024;-84
2024/01/18 05:27:30;;;;;;;9.77;7.18;;;;;;;;;;5049422;28;20033;-84
2024/01/18 05:29:59;;;;;;;10.40;7.13;;;;;;;;;;5048038;28;20029;-84
2024/01/18 05:32:25;;;;;;;11.90;7.30;;;;;;;;;;5049637;28;20029;-84
2024/01/18 05:34:51;;;;;;;11.05;7.00;;;;;;;;;;5048078;28;20056;-84
2024/01/18 05:37:18;;;;;;;8.05;6.60;;;;;;;;;;5048758;28;20036;-85
2024/01/18 05:39:44;;;;;;;10.10;7.28;;;;;;;;;;5059932;28;20025;-85
2024/01/18 05:42:10;;;;;;;10.07;6.97;;;;;;;;;;5051996;28;20066;-84
2024/01/18 05:44:36;;;;;;;10.35;7.13;;;;;;;;;;5048699;28;20090;-83
2024/01/18 05:47:03;;;;;;;8.98;6.80;;;;;;;;;;5063721;28;20028;-84
2024/01/18 05:49:29;;;;;;;10.02;7.10;;;;;;;;;;5048642;28;20048;-84
2024/01/18 05:51:55;;;;;;;9.32;7.07;;;;;;;;;;5049460;28;20024;-83
2024/01/18 05:54:21;;;;;;;9.07;7.00;;;;;;;;;;5065471;28;20048;-85
2024/01/18 05:56:48;;;;;;;9.45;7.57;;;;;;;;;;5066828;28;20033;-85
2024/01/18 05:59:14;;;;;;;10.82;7.15;;;;;;;;;;5068091;28;20158;-83
2024/01/18 06:01:41;;;;;;;9.85;7.53;;;;;;;;;;5067027;28;20033;-85
2024/01/18 06:04:07;;;;;;;11.02;7.55;;;;;;;;;;5072618;28;20020;-84
2024/01/18 06:06:33;;;;;;;8.77;7.55;;;;;;;;;;5072455;28;20028;-84
2024/01/18 06:08:59;;;;;;;9.75;7.55;;;;;;;;;;5070856;28;20032;-83
2024/01/18 06:11:25;;;;;;;12.30;8.40;;;;;;;;;;5073207;28;20024;-83
2024/01/18 06:13:51;;;;;;;12.57;9.25;;;;;;;;;;5072357;28;20094;-83
2024/01/18 06:16:17;;;;;;;18.52;9.57;;;;;;;;;;5071973;28;20107;-85
2024/01/18 06:18:45;;;;;;;8.80;7.30;;;;;;;;;;5072401;28;20033;-83
2024/01/18 06:21:11;;;;;;;10.88;8.15;;;;;;;;;;5072232;28;20481;-83
2024/01/18 06:23:37;;;;;;;11.80;7.88;;;;;;;;;;5072254;28;20028;-83
2024/01/18 06:26:03;;;;;;;13.77;8.15;;;;;;;;;;5071843;28;20032;-83
2024/01/18 06:28:30;;;;;;;12.13;7.72;;;;;;;;;;5087117;28;20054;-83
2024/01/18 06:30:56;;;;;;;15.18;8.10;;;;;;;;;;5093123;28;20051;-83
2024/01/18 06:33:22;;;;;;;12.38;7.30;;;;;;;;;;5092150;28;20056;-84
2024/01/18 06:35:48;;;;;;;11.07;7.47;;;;;;;;;;5090002;28;20400;-85
2024/01/18 06:38:14;;;;;;;11.30;8.10;;;;;;;;;;5071919;28;20021;-83
2024/01/18 06:40:40;;;;;;;11.82;8.20;;;;;;;;;;5071864;28;20033;-83
2024/01/18 06:43:06;;;;;;;13.40;7.70;;;;;;;;;;5071489;28;20392;-83
2024/01/18 06:45:32;;;;;;;11.63;7.65;;;;;;;;;;5071753;28;20461;-83
2024/01/18 06:47:59;;;;;;;10.52;7.40;;;;;;;;;;5072683;28;20025;-83
2024/01/18 06:50:25;;;;;;;13.02;7.60;;;;;;;;;;5071594;28;20024;-84
2024/01/18 06:52:51;;;;;;;13.13;8.20;;;;;;;;;;5071586;28;20571;-83
2024/01/18 06:55:18;;;;;;;10.93;7.78;;;;;;;;;;5071143;28;20068;-83
2024/01/18 06:57:48;;;;;;;11.30;7.50;;;;;;;;;;5070162;28;20396;-83
2024/01/18 07:00:14;;;;;;;12.10;8.50;;;;;;;;;;5071568;28;20036;-85
2024/01/18 07:02:40;;;;;;;12.65;7.90;;;;;;;;;;5070307;28;20017;-83
2024/01/18 07:05:06;;;;;;;10.05;8.05;;;;;;;;;;5080054;28;20106;-84
2024/01/18 07:07:32;;;;;;;10.65;7.72;;;;;;;;;;5091697;28;20020;-84
2024/01/18 07:09:58;;;;;;;11.82;7.60;;;;;;;;;;5091009;28;20130;-84
2024/01/18 07:12:24;;;;;;;10.82;8.63;;;;;;;;;;5088056;28;20024;-83
2024/01/18 07:14:51;;;;;;;9.80;7.18;;;;;;;;;;5071050;28;20040;-85
2024/01/18 07:17:17;;;;;;;9.63;7.80;;;;;;;;;;5071245;28;20381;-84
2024/01/18 07:19:43;;;;;;;12.10;7.78;;;;;;;;;;5071204;28;20465;-84
2024/01/18 07:22:10;;;;;;;9.73;7.75;;;;;;;;;;5071129;28;20476;-85
2024/01/18 07:24:36;;;;;;;11.23;8.30;;;;;;;;;;5072143;28;20032;-85
2024/01/18 07:27:02;;;;;;;10.68;7.45;;;;;;;;;;5071752;28;20032;-83
2024/01/18 07:29:28;;;;;;;9.93;7.45;;;;;;;;;;5071922;28;20431;-83
2024/01/18 07:31:55;;;;;;;8.80;7.38;;;;;;;;;;5070819;28;20496;-84
2024/01/18 07:34:21;;;;;;;8.63;7.05;;;;;;;;;;5070538;28;20032;-84
2024/01/18 07:36:47;;;;;;;8.65;6.57;;;;;;;;;;5070902;28;20024;-84
2024/01/18 07:39:15;;;;;;;8.57;6.93;;;;;;;;;;5070812;28;20040;-83
2024/01/18 07:41:41;;;;;;;11.20;7.25;;;;;;;;;;5070636;28;20017;-84
2024/01/18 07:44:07;;;;;;;9.10;6.22;;;;;;;;;;5070807;28;20032;-83
2024/01/18 07:46:33;;;;;;;8.27;6.85;;;;;;;;;;5070993;28;20097;-84
2024/01/18 07:49:01;;;;;;;8.73;6.47;;;;;;;;;;5071351;28;20078;-84
2024/01/18 07:51:28;;;;;;;10.10;6.60;;;;;;;;;;5070719;28;20021;-84
2024/01/18 07:53:54;;;;;;;10.48;7.05;;;;;;;;;;5070366;28;20033;-85
2024/01/18 07:56:20;;;;;;;7.80;6.65;;;;;;;;;;5070429;28;20021;-84
2024/01/18 07:58:47;;;;;;;8.10;6.40;;;;;;;;;;5070185;28;20028;-84
2024/01/18 08:01:15;;;;;;;9.57;6.40;;;;;;;;;;5070327;28;20063;-85
2024/01/18 08:03:41;;;;;;;7.88;6.43;;;;;;;;;;5070387;28;20107;-84
2024/01/18 08:06:07;;;;;;;8.75;6.28;;;;;;;;;;5076835;28;20107;-84
2024/01/18 08:08:33;;;;;;;7.55;5.90;;;;;;;;;;5091245;28;20027;-85
2024/01/18 08:10:59;;;;;;;7.18;5.93;;;;;;;;;;5090300;28;20106;-85
2024/01/18 08:13:25;;;;;;;7.40;5.45;;;;;;;;;;5090259;28;20028;-84
2024/01/18 08:15:51;;;;;;;8.90;5.80;;;;;;;;;;5085060;28;20419;-85
2024/01/18 08:18:17;;;;;;;6.63;5.65;;;;;;;;;;5070004;28;20065;-85
2024/01/18 08:20:43;;;;;;;8.00;6.18;;;;;;;;;;5070009;28;20115;-85
2024/01/18 08:23:11;;;;;;;12.63;6.10;;;;;;;;;;5069897;28;20021;-83
2024/01/18 08:25:37;;;;;;;8.77;5.80;;;;;;;;;;5069133;28;20165;-85
2024/01/18 08:28:03;;;;;;;7.72;5.38;;;;;;;;;;5069078;28;20109;-86
2024/01/18 08:30:29;;;;;;;9.25;5.57;;;;;;;;;;5069774;28;20070;-84
2024/01/18 08:32:55;;;;;;;7.03;5.60;;;;;;;;;;5069663;28;20101;-85
2024/01/18 08:35:21;;;;;;;7.65;5.43;;;;;;;;;;5068283;28;20162;-84
2024/01/18 08:37:48;;;;;;;8.10;5.13;;;;;;;;;;5069577;28;20060;-85
2024/01/18 08:40:14;;;;;;;8.18;5.40;;;;;;;;;;5069532;28;20427;-84
2024/01/18 08:42:45;;;;;;;7.28;5.47;;;;;;;;;;5069166;28;20044;-84
2024/01/18 08:45:11;;;;;;;7.57;5.30;;;;;;;;;;5069577;28;20017;-83
2024/01/18 08:47:37;;;;;;;8.82;5.90;;;;;;;;;;5068331;28;20031;-83
2024/01/18 08:50:03;;;;;;;10.23;5.60;;;;;;;;;;5070175;28;20052;-85
2024/01/18 08:52:29;;;;;;;12.82;5.65;;;;;;;;;;5068960;28;20035;-84
2024/01/18 08:54:55;;;;;;;11.88;5.40;;;;;;;;;;5069294;28;20107;-84
2024/01/18 08:57:21;;;;;;;6.95;5.10;;;;;;;;;;5069321;28;20082;-83
2024/01/18 08:59:47;;;;;;;7.45;4.70;;;;;;;;;;5067992;28;20141;-85
2024/01/18 09:02:14;;;;;;;7.53;4.90;;;;;;;;;;5081412;28;20399;-86
2024/01/18 09:04:40;;;;;;;6.97;4.90;;;;;;;;;;5089399;28;20020;-83
2024/01/18 09:07:06;;;;;;;8.32;4.63;;;;;;;;;;5090293;28;20021;-84
2024/01/18 09:09:32;;;;;;;6.53;4.13;;;;;;;;;;5089331;28;20028;-86
2024/01/18 09:11:58;;;;;;;7.50;4.60;;;;;;;;;;5089303;28;20543;-84
2024/01/18 09:14:24;;;;;;;9.43;4.95;;;;;;;;;;5088490;28;20196;-85
2024/01/18 09:16:50;;;;;;;6.50;4.70;;;;;;;;;;5084953;28;20498;-85
2024/01/18 09:19:16;;;;;;;6.85;4.65;;;;;;;;;;5069065;28;20020;-84
2024/01/18 09:21:43;;;;;;;6.15;4.68;;;;;;;;;;5067841;28;20490;-84
2024/01/18 09:24:09;;;;;;;6.15;4.15;;;;;;;;;;5067666;28;20029;-84
2024/01/18 09:26:35;;;;;;;4.97;4.00;;;;;;;;;;5069789;28;20033;-84
2024/01/18 09:29:02;;;;;;;9.07;4.25;;;;;;;;;;5068737;28;20036;-85
2024/01/18 09:31:28;;;;;;;5.40;4.03;;;;;;;;;;5068941;28;20495;-84
2024/01/18 09:33:54;;;;;;;5.38;3.65;;;;;;;;;;5067562;28;20037;-85
2024/01/18 09:36:20;;;;;;;4.63;3.33;;;;;;;;;;5071345;28;20021;-86
2024/01/18 09:38:49;;;;;;;6.28;3.22;;;;;;;;;;5075559;28;20031;-85
2024/01/18 09:41:19;;;;;;;5.50;3.67;;;;;;;;;;5075534;28;20033;-85
2024/01/18 09:43:45;;;;;;;5.18;3.50;;;;;;;;;;5075111;28;20035;-85
2024/01/18 09:46:12;;;;;;;3.58;3.08;;;;;;;;;;5074169;28;20579;-84
2024/01/18 09:48:39;;;;;;;6.50;3.30;;;;;;;;;;5076330;28;20099;-86
2024/01/18 09:51:06;;;;;;;5.88;3.08;;;;;;;;;;5075596;28;20029;-84
2024/01/18 09:53:32;;;;;;;8.55;3.22;;;;;;;;;;5075434;28;20028;-85
2024/01/18 09:56:18;;;;;;;4.53;3.00;;;;;;;;;;5075224;28;20028;-85
2024/01/18 09:58:44;;;;;;;6.38;3.03;;;;;;;;;;5075321;28;20407;-85
2024/01/18 10:01:16;;;;;;;3.92;2.83;;;;;;;;;;5076182;28;20031;-84
2024/01/18 10:03:42;;;;;;;3.67;2.90;;;;;;;;;;5075562;28;20016;-84
2024/01/18 10:06:08;;;;;;;9.52;3.20;;;;;;;;;;5076122;28;20027;-84
2024/01/18 10:08:34;;;;;;;8.32;2.80;;;;;;;;;;5075246;28;20024;-84
2024/01/18 10:11:00;;;;;;;8.15;2.67;;;;;;;;;;5075287;28;20031;-84
2024/01/18 10:13:27;;;;;;;5.63;2.63;;;;;;;;;;5075170;28;20024;-85
2024/01/18 10:15:53;;;;;;;6.70;2.78;;;;;;;;;;5075224;28;20054;-85
2024/01/18 10:18:19;;;;;;;5.22;2.50;;;;;;;;;;5075280;28;20476;-85
2024/01/18 10:20:47;;;;;;;9.07;3.00;;;;;;;;;;5073470;28;20029;-83
2024/01/18 10:23:13;;;;;;;4.63;2.63;;;;;;;;;;5075024;28;20033;-83
2024/01/18 10:25:40;;;;;;;5.85;2.60;;;;;;;;;;5075927;28;20028;-85
2024/01/18 10:28:06;;;;;;;4.68;2.10;;;;;;;;;;5073627;28;20557;-84
2024/01/18 10:30:33;;;;;;;2.80;2.08;;;;;;;;;;5075087;28;20277;-85
2024/01/18 10:33:01;;;;;;;4.22;2.67;;;;;;;;;;5073727;28;20025;-85
2024/01/18 10:35:28;;;;;;;3.90;2.63;;;;;;;;;;5073315;28;20446;-84
2024/01/18 10:38:04;;;;;;;3.93;2.27;;;;;;;;;;5075007;28;20029;-84
2024/01/18 10:40:31;;;;;;;4.47;2.55;;;;;;;;;;5074921;28;20267;-83
2024/01/18 10:42:57;;;;;;;7.70;3.05;;;;;;;;;;5074963;28;20016;-84
2024/01/18 10:45:23;;;;;;;4.95;2.90;;;;;;;;;;5075011;28;20050;-84
2024/01/18 10:47:49;;;;;;;4.30;2.53;;;;;;;;;;5072976;28;20025;-86
2024/01/18 10:50:16;;;;;;;4.45;2.83;;;;;;;;;;5071630;28;20103;-85
2024/01/18 10:52:45;;;;;;;3.00;2.50;;;;;;;;;;5072589;28;20472;-85
2024/01/18 10:55:12;;;;;;;5.97;3.10;;;;;;;;;;5071056;28;20400;-84
2024/01/18 10:57:38;;;;;;;3.53;2.40;;;;;;;;;;5071558;28;20464;-84
2024/01/18 11:00:07;;;;;;;2.67;2.47;;;;;;;;;;5071576;28;20025;-85
2024/01/18 11:02:40;;;;;;;4.85;2.70;;;;;;;;;;5071194;28;20480;-84
2024/01/18 11:05:09;;;;;;;4.93;2.85;;;;;;;;;;5071577;28;20078;-85
2024/01/18 11:07:37;;;;;;;5.85;2.70;;;;;;;;;;5071099;28;20387;-84
2024/01/18 11:10:03;;;;;;;3.13;2.60;;;;;;;;;;5077683;28;20032;-86
2024/01/18 11:12:30;;;;;;;6.60;2.92;;;;;;;;;;5091557;28;20024;-85
2024/01/18 11:14:56;;;;;;;6.70;3.03;;;;;;;;;;5091488;28;20043;-83
2024/01/18 11:17:22;;;;;;;5.28;2.97;;;;;;;;;;5091610;28;20460;-84
2024/01/18 11:19:49;;;;;;;6.82;2.97;;;;;;;;;;5087250;28;20024;-84
2024/01/18 11:22:25;;;;;;;5.15;3.20;;;;;;;;;;5070277;28;20111;-83
2024/01/18 11:24:52;;;;;;;4.80;2.90;;;;;;;;;;5071139;28;20088;-84
2024/01/18 11:27:21;;;;;;;3.35;2.50;;;;;;;;;;5071179;28;20428;-83
2024/01/18 11:29:49;;;;;;;3.80;3.20;;;;;;;;;;5070839;28;20063;-83
2024/01/18 11:32:15;;;;;;;6.38;2.78;;;;;;;;;;5071732;28;20476;-84
2024/01/18 11:34:42;;;;;;;5.03;3.30;;;;;;;;;;5071245;28;20408;-85
2024/01/18 11:37:18;;;;;;;5.28;3.50;;;;;;;;;;5070549;28;20085;-84
2024/01/18 11:39:47;;;;;;;4.70;2.92;;;;;;;;;;5070220;28;20081;-85
2024/01/18 11:42:19;;;;;;;5.45;2.88;;;;;;;;;;5071647;28;20021;-85
2024/01/18 11:45:03;;;;;;;7.50;4.40;;;;;;;;;;5071551;28;20158;-83
2024/01/18 11:47:30;;;;;;;4.90;2.67;;;;;;;;;;5077696;28;20020;-83
2024/01/18 11:49:56;;;;;;;7.13;3.15;;;;;;;;;;5077243;28;20376;-84
2024/01/18 11:52:23;;;;;;;5.35;3.75;;;;;;;;;;5070531;28;20021;-83
2024/01/18 11:54:53;;;;;;;6.07;2.78;;;;;;;;;;5070429;28;20028;-83
2024/01/18 11:57:19;;;;;;;5.95;3.40;;;;;;;;;;5070545;28;20021;-83
2024/01/18 11:59:48;;;;;;;6.63;2.85;;;;;;;;;;5069974;28;20554;-85
2024/01/18 12:02:14;;;;;;;4.55;2.50;;;;;;;;;;5070739;28;20025;-84
2024/01/18 12:04:40;;;;;;;6.18;2.60;;;;;;;;;;5069118;28;20024;-84
2024/01/18 12:07:10;;;;;;;7.20;2.42;;;;;;;;;;5070254;28;20024;-84
2024/01/18 12:09:36;;;;;;;7.22;2.63;;;;;;;;;;5068698;28;20024;-85
2024/01/18 12:12:03;;;;;;;5.15;1.80;;;;;;;;;;5070168;28;20099;-84
2024/01/18 12:14:29;;;;;;;4.20;2.00;;;;;;;;;;5069783;28;20116;-84
2024/01/18 12:16:55;;;;;;;3.03;1.98;;;;;;;;;;5070123;28;20127;-84
2024/01/18 12:19:33;;;;;;;4.30;2.08;;;;;;;;;;5069767;28;20455;-84
2024/01/18 12:22:06;;;;;;;5.78;2.13;;;;;;;;;;5068708;28;20021;-84
2024/01/18 12:24:32;;;;;;;3.17;1.60;;;;;;;;;;5069965;28;20043;-83
2024/01/18 12:26:59;;;;;;;6.93;2.13;;;;;;;;;;5068248;28;20033;-84
2024/01/18 12:29:27;;;;;;;4.75;1.80;;;;;;;;;;5069755;28;20111;-83
2024/01/18 12:31:54;;;;;;;6.30;1.83;;;;;;;;;;5069823;28;20024;-83
2024/01/18 12:34:20;;;;;;;3.53;1.70;;;;;;;;;;5068113;28;20400;-83
2024/01/18 12:36:46;;;;;;;6.32;2.00;;;;;;;;;;5070585;28;20124;-83
2024/01/18 12:39:12;;;;;;;4.07;1.73;;;;;;;;;;5069625;28;20028;-84
2024/01/18 12:41:38;;;;;;;7.72;2.17;;;;;;;;;;5069322;28;20036;-83
2024/01/18 12:44:06;;;;;;;4.70;1.63;;;;;;;;;;5068365;28;20377;-83
2024/01/18 12:46:32;;;;;;;4.82;2.10;;;;;;;;;;5069657;28;20016;-85
2024/01/18 12:48:58;;;;;;;4.53;1.98;;;;;;;;;;5069546;28;20475;-83
2024/01/18 12:51:24;;;;;;;3.88;1.50;;;;;;;;;;5069454;28;20032;-84
2024/01/18 12:53:51;;;;;;;2.28;1.40;;;;;;;;;;5069223;28;20028;-82
2024/01/18 12:56:17;;;;;;;3.60;1.52;;;;;;;;;;5075261;28;20480;-84
2024/01/18 12:58:43;;;;;;;4.47;1.80;;;;;;;;;;5069419;28;20499;-84
2024/01/18 13:01:09;;;;;;;1.50;1.40;;;;;;;;;;5069316;28;20029;-84
2024/01/18 13:03:35;;;;;;;5.85;1.75;;;;;;;;;;5069194;28;20043;-83
2024/01/18 13:06:02;;;;;;;2.80;1.70;;;;;;;;;;5069252;28;20024;-84
2024/01/18 13:08:28;;;;;;;5.40;1.67;;;;;;;;;;5069344;28;20021;-84
2024/01/18 13:10:54;;;;;;;2.67;1.60;;;;;;;;;;5068820;28;20311;-82
2024/01/18 13:13:20;;;;;;;2.00;1.80;;;;;;;;;;5069987;28;20052;-85
2024/01/18 13:15:46;;;;;;;6.20;1.60;;;;;;;;;;5069482;28;20365;-83
2024/01/18 13:18:13;;;;;;;3.97;1.70;;;;;;;;;;5069114;28;20050;-84
2024/01/18 13:20:40;;;;;;;5.65;1.60;;;;;;;;;;5069096;28;20117;-82
2024/01/18 13:23:06;;;;;;;1.60;1.50;;;;;;;;;;5078156;28;20024;-83
2024/01/18 13:25:33;;;;;;;3.60;1.48;;;;;;;;;;5089289;28;20039;-83
2024/01/18 13:27:59;;;;;;;6.32;1.58;;;;;;;;;;5089023;28;20097;-84
2024/01/18 13:30:25;;;;;;;5.85;1.77;;;;;;;;;;5089212;28;20074;-82
2024/01/18 13:32:53;;;;;;;2.67;1.73;;;;;;;;;;5079448;28;20503;-84
2024/01/18 13:35:19;;;;;;;2.03;1.40;;;;;;;;;;5069727;28;20097;-82
2024/01/18 13:37:45;;;;;;;1.75;1.10;;;;;;;;;;5074443;28;20024;-83
2024/01/18 13:40:11;;;;;;;3.45;1.40;;;;;;;;;;5089084;28;20104;-82
2024/01/18 13:42:37;;;;;;;2.13;1.50;;;;;;;;;;5087775;28;20016;-83
2024/01/18 13:45:03;;;;;;;2.05;1.33;;;;;;;;;;5089075;28;20100;-82
2024/01/18 13:47:29;;;;;;;3.22;1.50;;;;;;;;;;5072407;28;20067;-82
2024/01/18 13:49:55;;;;;;;1.58;1.23;;;;;;;;;;5067501;28;20056;-83
2024/01/18 13:52:22;;;;;;;1.60;1.30;;;;;;;;;;5069532;28;20499;-85
2024/01/18 13:54:48;;;;;;;1.20;1.10;;;;;;;;;;5068646;28;20365;-83
2024/01/18 13:57:14;;;;;;;1.80;1.40;;;;;;;;;;5068102;28;20426;-84
2024/01/18 13:59:40;;;;;;;4.68;1.40;;;;;;;;;;5085541;28;20077;-83
2024/01/18 14:02:06;;;;;;;3.80;1.10;;;;;;;;;;5088867;28;20024;-83
2024/01/18 14:04:33;;;;;;;2.60;1.30;;;;;;;;;;5088814;28;20098;-83
2024/01/18 14:06:59;;;;;;;1.50;1.40;;;;;;;;;;5087428;28;20056;-83
2024/01/18 14:09:25;;;;;;;1.48;1.38;;;;;;;;;;5087018;28;20464;-82
2024/01/18 14:11:51;;;;;;;3.72;1.50;;;;;;;;;;5089569;28;20020;-82
2024/01/18 14:14:17;;;;;;;3.00;1.30;;;;;;;;;;5088640;28;20099;-81
2024/01/18 14:16:44;;;;;;;3.40;1.40;;;;;;;;;;5087391;28;20108;-82
2024/01/18 14:19:10;;;;;;;1.88;1.20;;;;;;;;;;5088783;28;20468;-82
2024/01/18 14:21:36;;;;;;;3.60;1.63;;;;;;;;;;5088654;28;20036;-82
2024/01/18 14:24:03;;;;;;;3.42;1.40;;;;;;;;;;5091032;28;20020;-82
2024/01/18 14:26:29;;;;;;;1.70;1.20;;;;;;;;;;5072915;28;20021;-82
2024/01/18 14:28:55;;;;;;;3.35;1.58;;;;;;;;;;5071633;28;20035;-82
2024/01/18 14:31:21;;;;;;;2.85;1.60;;;;;;;;;;5072963;28;20109;-84
2024/01/18 14:33:47;;;;;;;1.50;1.40;;;;;;;;;;5071936;28;20042;-83
2024/01/18 14:36:13;;;;;;;1.95;1.30;;;;;;;;;;5072034;28;20021;-83